Time;durP1;ratioP1;P1;durP2;ratioP2;P2;SDS_P1;SDS_P2;PMS_P1;PMS_P2;Temp;Humidity;BMP_temperature;BMP_pressure;BME280_temperature;BME280_humidity;BME280_pressure;Samples;Min_cycle;Max_cycle;Signal;HPM_P1;HPM_P2
2022/01/11 00:01:14;;;;;;;53.63;22.75;;;;;;;5.54;77.42;102680.31;5025090;28;20514;-66
2022/01/11 00:03:41;;;;;;;51.92;22.80;;;;;;;5.67;76.49;102680.28;5026659;28;20045;-66
2022/01/11 00:06:20;;;;;;;53.17;22.98;;;;;;;5.68;76.41;102676.84;5026884;28;20053;-66
2022/01/11 00:08:49;;;;;;;55.28;22.08;;;;;;;5.61;76.62;102682.91;5034618;28;20045;-66
2022/01/11 00:11:15;;;;;;;50.15;21.13;;;;;;;5.57;76.67;102677.69;5027921;28;20472;-66
2022/01/11 00:13:43;;;;;;;43.13;20.73;;;;;;;5.58;76.71;102687.25;5024270;28;20046;-66
2022/01/11 00:16:11;;;;;;;49.10;22.17;;;;;;;5.59;76.44;102674.22;5029730;28;20069;-66
2022/01/11 00:18:37;;;;;;;40.15;20.30;;;;;;;5.58;76.51;102687.25;5028942;28;20049;-66
2022/01/11 00:21:04;;;;;;;41.53;19.23;;;;;;;5.46;76.48;102687.25;5030065;28;20490;-66
2022/01/11 00:26:16;;;;;;;44.25;20.25;;;;;;;5.29;77.58;102693.28;5029750;28;20047;-66
2022/01/11 00:28:42;;;;;;;39.38;20.17;;;;;;;5.08;77.30;102688.06;5030804;28;20045;-66
2022/01/11 00:31:09;;;;;;;33.22;18.45;;;;;;;5.26;76.79;102693.28;5029045;28;20045;-66
2022/01/11 00:33:39;;;;;;;30.85;17.02;;;;;;;5.46;75.88;102697.66;5030220;28;20107;-66
2022/01/11 00:36:07;;;;;;;26.05;15.65;;;;;;;5.12;75.04;102695.00;5023154;28;20413;-66
2022/01/11 00:38:36;;;;;;;27.23;14.88;;;;;;;5.24;75.43;102694.16;5029380;28;20516;-66
2022/01/11 00:41:05;;;;;;;31.90;15.10;;;;;;;5.40;75.00;102695.91;5027498;28;20096;-66
2022/01/11 00:43:34;;;;;;;29.40;15.07;;;;;;;5.39;75.10;102697.63;5026236;28;20471;-66
2022/01/11 00:46:00;;;;;;;26.60;14.27;;;;;;;5.50;75.26;102692.47;5009332;28;20050;-66
2022/01/11 00:48:28;;;;;;;28.90;14.32;;;;;;;5.47;75.03;102697.63;5010294;28;20553;-65
2022/01/11 00:50:55;;;;;;;32.85;16.63;;;;;;;5.35;75.95;102701.13;5027650;28;20053;-66
2022/01/11 00:53:22;;;;;;;27.40;14.93;;;;;;;5.46;75.86;102706.31;5014445;28;20046;-66
2022/01/11 00:55:50;;;;;;;26.55;14.07;;;;;;;5.59;75.06;102707.19;5010050;28;20049;-66
2022/01/11 00:58:17;;;;;;;25.35;16.13;;;;;;;5.59;73.41;102708.06;5012403;28;20045;-66
2022/01/11 01:00:45;;;;;;;29.48;14.80;;;;;;;5.60;73.96;102715.00;5025447;28;20065;-66
2022/01/11 01:03:12;;;;;;;27.45;15.77;;;;;;;5.54;75.01;102709.81;5030859;28;20486;-66
2022/01/11 01:05:39;;;;;;;27.88;14.02;;;;;;;5.58;75.27;102715.88;5029949;28;20057;-66
2022/01/11 01:08:06;;;;;;;28.50;15.18;;;;;;;5.62;75.02;102714.97;5029308;28;20046;-66
2022/01/11 01:10:37;;;;;;;30.73;15.13;;;;;;;5.64;74.58;102714.13;5040508;28;20127;-66
2022/01/11 01:13:05;;;;;;;;;;;;;;;5.64;74.90;102714.13;5028930;28;20049;-66
2022/01/11 01:15:34;;;;;;;27.30;14.63;;;;;;;5.61;74.17;102715.88;5026796;28;20010;-66
2022/01/11 01:18:02;;;;;;;30.13;15.40;;;;;;;5.59;74.13;102715.00;5023653;28;20052;-66
2022/01/11 01:20:30;;;;;;;24.65;14.95;;;;;;;5.60;74.38;102717.59;5046393;28;20417;-66
2022/01/11 01:22:56;;;;;;;29.05;15.60;;;;;;;5.51;74.03;102724.53;5036686;28;20723;-66
2022/01/11 01:25:24;;;;;;;26.77;14.18;;;;;;;5.36;74.91;102721.03;5032455;28;20100;-66
2022/01/11 01:27:52;;;;;;;28.08;15.05;;;;;;;5.31;75.37;102725.38;5015504;28;20078;-66
2022/01/11 01:30:20;;;;;;;24.10;13.73;;;;;;;5.46;75.05;102729.75;5025421;28;20099;-66
2022/01/11 01:32:48;;;;;;;26.80;13.32;;;;;;;5.51;74.33;102733.19;5028649;28;20053;-66
2022/01/11 01:35:16;;;;;;;27.48;15.45;;;;;;;5.48;74.22;102724.53;5027633;28;20463;-66
2022/01/11 01:37:43;;;;;;;25.25;15.20;;;;;;;5.27;74.26;102736.66;5029056;28;20534;-66
2022/01/11 01:40:12;;;;;;;24.00;13.23;;;;;;;5.41;74.16;102734.06;5029237;28;20106;-66
2022/01/11 01:42:38;;;;;;;25.95;14.23;;;;;;;5.62;73.91;102741.88;5027771;28;20046;-66
2022/01/11 01:45:06;;;;;;;24.52;14.40;;;;;;;5.55;73.53;102740.13;5028498;28;20052;-66
2022/01/11 01:47:32;;;;;;;22.52;14.15;;;;;;;5.41;73.51;102736.66;5041338;28;20118;-66
2022/01/11 01:49:59;;;;;;;21.15;13.93;;;;;;;5.20;74.51;102734.91;5048869;28;20049;-66
2022/01/11 01:52:27;;;;;;;19.88;13.70;;;;;;;5.22;74.44;102740.97;5032105;28;20045;-66
2022/01/11 01:54:53;;;;;;;22.52;13.60;;;;;;;5.09;74.31;102743.53;5028983;28;20140;-66
2022/01/11 01:57:20;;;;;;;22.65;13.15;;;;;;;5.03;74.72;102744.38;5028198;28;20045;-66
2022/01/11 01:59:46;;;;;;;18.38;12.27;;;;;;;5.30;73.71;102746.19;5026447;28;20085;-66
2022/01/11 02:02:13;;;;;;;19.17;12.82;;;;;;;5.62;72.40;102749.69;5026156;28;20072;-66
2022/01/11 02:04:40;;;;;;;20.30;13.00;;;;;;;5.60;72.22;102741.03;5015063;28;20049;-66
2022/01/11 02:07:07;;;;;;;18.08;12.18;;;;;;;5.28;72.77;102758.34;5027859;28;20448;-66
2022/01/11 02:09:35;;;;;;;19.23;13.05;;;;;;;5.12;73.45;102751.34;5029365;28;20483;-66
2022/01/11 02:12:02;;;;;;;20.35;11.82;;;;;;;5.14;73.75;102747.00;5030532;28;20111;-66
2022/01/11 02:14:29;;;;;;;18.25;11.38;;;;;;;4.89;74.40;102752.13;5030000;28;20394;-66
2022/01/11 02:16:56;;;;;;;19.42;13.43;;;;;;;5.24;73.95;102754.84;5026646;28;20050;-66
2022/01/11 02:19:23;;;;;;;20.80;12.93;;;;;;;5.38;73.21;102747.06;5010885;28;20062;-66
2022/01/11 02:21:50;;;;;;;23.27;13.63;;;;;;;5.29;73.43;102752.25;5020885;28;20053;-66
2022/01/11 02:24:18;;;;;;;21.77;14.38;;;;;;;5.35;73.18;102750.53;5030222;28;20045;-66
2022/01/11 02:26:45;;;;;;;22.83;13.18;;;;;;;5.21;73.26;102749.63;5027288;28;20506;-66
2022/01/11 02:29:11;;;;;;;27.40;15.55;;;;;;;5.32;73.66;102753.13;5029373;28;20115;-66
2022/01/11 02:31:38;;;;;;;24.05;15.73;;;;;;;5.33;73.54;102748.78;5030095;28;20484;-66
2022/01/11 02:34:05;;;;;;;24.10;15.25;;;;;;;5.49;73.33;102755.75;5027790;28;20060;-66
2022/01/11 02:36:33;;;;;;;24.42;14.77;;;;;;;5.57;73.19;102753.16;5025134;28;20050;-66
2022/01/11 02:39:01;;;;;;;22.02;15.57;;;;;;;5.40;73.48;102755.72;5026357;28;20151;-66
2022/01/11 02:41:30;;;;;;;27.90;14.70;;;;;;;5.46;73.69;102758.38;5031229;28;20114;-66
2022/01/11 02:43:58;;;;;;;23.98;15.32;;;;;;;5.49;73.53;102749.69;5038273;28;20045;-66
2022/01/11 02:46:26;;;;;;;25.27;16.35;;;;;;;5.72;73.02;102759.25;5029697;28;20049;-66
2022/01/11 02:48:54;;;;;;;25.27;14.93;;;;;;;5.65;73.12;102754.03;5029620;28;20049;-65
2022/01/11 02:51:21;;;;;;;24.00;14.88;;;;;;;5.66;73.34;102763.56;5028785;28;20057;-66
2022/01/11 02:53:50;;;;;;;27.88;14.82;;;;;;;5.63;73.04;102763.56;5029842;28;20053;-66
2022/01/11 02:56:19;;;;;;;27.73;14.93;;;;;;;5.64;73.62;102768.78;5029600;28;20077;-66
2022/01/11 02:58:47;;;;;;;23.35;15.27;;;;;;;5.50;73.32;102765.31;5028177;28;20072;-66
2022/01/11 03:01:13;;;;;;;26.15;14.82;;;;;;;5.45;74.08;102771.34;5029876;28;20050;-66
2022/01/11 03:03:40;;;;;;;25.42;14.60;;;;;;;5.57;73.56;102772.25;5029031;28;20103;-66
2022/01/11 03:06:07;;;;;;;25.02;14.35;;;;;;;5.59;73.57;102775.72;5014239;28;20045;-66
2022/01/11 03:08:35;;;;;;;26.00;13.63;;;;;;;5.55;73.89;102780.91;5029085;28;20049;-66
2022/01/11 03:11:02;;;;;;;25.88;14.85;;;;;;;5.46;74.24;102783.50;5025721;28;20041;-66
2022/01/11 03:13:30;;;;;;;28.63;14.50;;;;;;;5.44;74.79;102790.44;5026735;28;20053;-66
2022/01/11 03:15:57;;;;;;;30.70;16.05;;;;;;;5.39;75.14;102780.88;5027358;28;20111;-66
2022/01/11 03:18:23;;;;;;;33.42;16.30;;;;;;;5.24;75.30;102783.47;5027243;28;20049;-66
2022/01/11 03:20:52;;;;;;;32.13;15.77;;;;;;;5.43;75.12;102789.59;5026868;28;20049;-66
2022/01/11 03:23:19;;;;;;;37.83;16.20;;;;;;;5.45;74.83;102790.44;5026901;28;20045;-66
2022/01/11 03:25:46;;;;;;;36.38;16.23;;;;;;;5.48;74.78;102789.56;5034327;28;20437;-66
2022/01/11 03:28:13;;;;;;;38.60;16.85;;;;;;;5.47;75.10;102793.91;5042337;28;20042;-66
2022/01/11 03:30:40;;;;;;;34.65;17.25;;;;;;;5.49;74.86;102794.78;5026430;28;20046;-66
2022/01/11 03:33:08;;;;;;;33.25;17.35;;;;;;;5.27;75.45;102795.59;5026409;28;20045;-66
2022/01/11 03:35:35;;;;;;;33.05;17.50;;;;;;;5.24;76.05;102799.06;5021784;28;20244;-67
2022/01/11 03:38:03;;;;;;;32.15;17.45;;;;;;;5.32;75.82;102806.91;5025728;28;20045;-66
2022/01/11 03:40:30;;;;;;;35.33;17.90;;;;;;;5.39;75.75;102811.25;5026538;28;20119;-66
2022/01/11 03:42:57;;;;;;;38.65;18.85;;;;;;;5.39;75.39;102812.09;5035371;28;20045;-66
2022/01/11 03:45:24;;;;;;;38.63;19.35;;;;;;;5.25;76.16;102812.91;5033100;28;20064;-66
2022/01/11 03:47:55;;;;;;;36.55;17.73;;;;;;;5.25;76.31;102807.72;5028960;28;20103;-66
2022/01/11 03:50:22;;;;;;;36.70;18.60;;;;;;;5.26;76.28;102820.75;5031423;28;20579;-66
2022/01/11 03:52:57;;;;;;;37.78;19.30;;;;;;;5.38;75.67;102819.91;5026340;28;20057;-66
2022/01/11 03:55:42;;;;;;;43.47;20.23;;;;;;;5.21;76.50;102813.81;5026735;28;20038;-66
2022/01/11 03:58:09;;;;;;;43.65;19.67;;;;;;;5.20;76.45;102812.94;5025777;28;20513;-66
2022/01/11 04:00:36;;;;;;;35.05;17.88;;;;;;;5.30;76.39;102821.63;5023318;28;20076;-66
2022/01/11 04:03:05;;;;;;;36.03;18.27;;;;;;;5.50;75.31;102819.94;5027116;28;20469;-66
2022/01/11 04:05:32;;;;;;;37.85;19.70;;;;;;;5.24;75.66;102826.81;5022133;28;20057;-66
2022/01/11 04:07:58;;;;;;;40.20;19.98;;;;;;;5.50;75.52;102832.09;5026261;28;20402;-66
2022/01/11 04:10:25;;;;;;;39.80;19.25;;;;;;;5.43;75.89;102832.94;5027906;28;20091;-66
2022/01/11 04:12:52;;;;;;;39.60;20.52;;;;;;;5.44;75.91;102832.06;5032135;28;20049;-66
2022/01/11 04:15:19;;;;;;;39.58;19.58;;;;;;;5.48;75.71;102837.28;5042697;28;20050;-66
2022/01/11 04:17:45;;;;;;;43.42;19.80;;;;;;;5.49;75.47;102833.81;5042134;28;20045;-66
2022/01/11 04:20:14;;;;;;;35.30;18.85;;;;;;;5.35;76.13;102839.00;5041979;28;20049;-66
2022/01/11 04:22:41;;;;;;;33.75;17.67;;;;;;;5.32;75.69;102830.31;5034684;28;20052;-66
2022/01/11 04:25:08;;;;;;;41.03;19.10;;;;;;;5.40;75.78;102828.56;5040186;28;20046;-66
2022/01/11 04:27:34;;;;;;;40.45;20.15;;;;;;;5.34;75.92;102825.97;5039441;28;20406;-66
2022/01/11 04:30:01;;;;;;;36.90;19.13;;;;;;;5.36;76.00;102832.03;5027335;28;20406;-66
2022/01/11 04:32:28;;;;;;;40.33;19.17;;;;;;;5.29;76.24;102825.06;5021850;28;20195;-66
2022/01/11 04:34:55;;;;;;;34.55;17.17;;;;;;;5.40;75.63;102837.25;5028221;28;20053;-66
2022/01/11 04:37:23;;;;;;;36.65;19.27;;;;;;;5.49;75.23;102839.03;5019529;28;20065;-66
2022/01/11 04:39:49;;;;;;;34.83;19.05;;;;;;;5.39;75.64;102832.91;5034029;28;20463;-66
2022/01/11 04:42:16;;;;;;;39.08;18.52;;;;;;;5.32;76.20;102832.91;5030334;28;20045;-66
2022/01/11 04:44:42;;;;;;;40.15;18.83;;;;;;;5.39;75.70;102837.25;5028028;28;20050;-66
2022/01/11 04:47:09;;;;;;;40.95;20.42;;;;;;;5.46;75.74;102836.41;5042699;28;20057;-66
2022/01/11 04:49:35;;;;;;;39.83;19.08;;;;;;;5.41;75.69;102840.72;5035849;28;20111;-66
2022/01/11 04:52:02;;;;;;;39.42;18.23;;;;;;;5.32;75.87;102833.75;5034970;28;20111;-66
2022/01/11 04:54:29;;;;;;;39.80;18.77;;;;;;;5.24;76.51;102840.69;5043808;28;20049;-66
2022/01/11 04:56:56;;;;;;;41.33;19.83;;;;;;;5.25;76.36;102838.94;5043231;28;20068;-66
2022/01/11 04:59:22;;;;;;;40.80;19.55;;;;;;;5.22;76.43;102838.91;5027512;28;20087;-66
2022/01/11 05:01:49;;;;;;;39.25;18.42;;;;;;;5.31;75.78;102842.44;5027551;28;20453;-66
2022/01/11 05:04:15;;;;;;;42.08;19.60;;;;;;;5.25;76.05;102838.94;5032152;28;20477;-66
2022/01/11 05:06:42;;;;;;;46.72;20.17;;;;;;;5.23;76.43;102840.66;5023865;28;20045;-66
2022/01/11 05:09:08;;;;;;;45.95;20.10;;;;;;;5.21;76.52;102845.00;5032137;28;20094;-66
2022/01/11 05:11:36;;;;;;;37.65;18.55;;;;;;;5.30;76.21;102852.81;5039860;28;20049;-66
2022/01/11 05:14:02;;;;;;;39.28;18.85;;;;;;;5.34;75.85;102852.84;5040889;28;20529;-66
2022/01/11 05:16:28;;;;;;;39.45;18.52;;;;;;;5.37;75.67;102844.19;5049297;28;20099;-66
2022/01/11 05:18:55;;;;;;;39.70;18.77;;;;;;;5.31;75.96;102849.38;5046569;28;20053;-66
2022/01/11 05:21:22;;;;;;;42.97;19.77;;;;;;;5.22;76.51;102838.91;5049447;28;20061;-66
2022/01/11 05:23:48;;;;;;;42.97;18.95;;;;;;;5.21;76.45;102852.81;5047894;28;20045;-66
2022/01/11 05:26:15;;;;;;;41.03;19.02;;;;;;;5.22;76.41;102850.19;5045916;28;20119;-66
2022/01/11 05:28:42;;;;;;;42.08;20.10;;;;;;;5.23;76.37;102851.06;5044334;28;20037;-66
2022/01/11 05:31:09;;;;;;;47.40;20.38;;;;;;;5.32;75.88;102856.31;5035343;28;20560;-66
2022/01/11 05:33:35;;;;;;;39.42;18.00;;;;;;;5.37;75.68;102851.97;5032886;28;20077;-66
2022/01/11 05:36:01;;;;;;;42.10;18.83;;;;;;;5.25;76.16;102859.72;5027802;28;20460;-66
2022/01/11 05:38:28;;;;;;;41.05;19.15;;;;;;;5.26;76.38;102864.09;5022552;28;20077;-66
2022/01/11 05:40:56;;;;;;;45.35;20.52;;;;;;;5.24;76.47;102866.69;5027241;28;20077;-66
2022/01/11 05:43:22;;;;;;;41.95;19.23;;;;;;;5.27;76.56;102863.22;5031752;28;20091;-66
2022/01/11 05:45:50;;;;;;;36.35;19.33;;;;;;;5.26;76.72;102861.47;5035874;28;20050;-66
2022/01/11 05:48:17;;;;;;;45.20;21.23;;;;;;;5.24;76.37;102864.09;5042847;28;20040;-66
2022/01/11 05:50:43;;;;;;;42.47;19.13;;;;;;;5.30;76.68;102873.63;5049480;28;20051;-66
2022/01/11 05:53:10;;;;;;;52.00;20.67;;;;;;;5.42;76.35;102868.50;5037277;28;20100;-66
2022/01/11 05:55:36;;;;;;;44.55;20.35;;;;;;;5.47;76.22;102871.94;5038960;28;20049;-66
2022/01/11 05:58:02;;;;;;;43.20;19.95;;;;;;;5.47;76.08;102871.13;5042957;28;20068;-66
2022/01/11 06:00:29;;;;;;;48.30;21.13;;;;;;;5.53;76.11;102872.00;5025452;28;20103;-66
2022/01/11 06:02:58;;;;;;;46.42;19.90;;;;;;;5.53;76.05;102871.13;5029003;28;20517;-66
2022/01/11 06:05:25;;;;;;;45.72;21.13;;;;;;;5.39;76.69;102879.72;5022760;28;20413;-66
2022/01/11 06:07:51;;;;;;;46.05;21.90;;;;;;;5.46;76.19;102874.56;5027853;28;20049;-66
2022/01/11 06:10:18;;;;;;;46.78;21.17;;;;;;;5.35;76.86;102885.81;5027689;28;20049;-66
2022/01/11 06:12:44;;;;;;;44.60;20.40;;;;;;;5.33;76.94;102884.06;5043511;28;20417;-66
2022/01/11 06:15:11;;;;;;;54.33;22.20;;;;;;;5.31;77.58;102878.84;5049063;28;20045;-66
2022/01/11 06:17:37;;;;;;;47.83;21.52;;;;;;;5.32;77.31;102877.13;5036308;28;20143;-66
2022/01/11 06:20:07;;;;;;;53.53;22.63;;;;;;;5.42;77.11;102891.03;5040784;28;20049;-66
2022/01/11 06:22:33;;;;;;;51.67;21.88;;;;;;;5.60;76.18;102889.34;5022887;28;20453;-66
2022/01/11 06:25:03;;;;;;;53.40;21.45;;;;;;;5.67;76.22;102887.63;5033679;28;20049;-66
2022/01/11 06:27:29;;;;;;;53.65;21.58;;;;;;;5.61;76.42;102883.31;5047528;28;20076;-66
2022/01/11 06:29:55;;;;;;;71.40;24.10;;;;;;;5.54;76.57;102891.97;5025880;28;20516;-66
2022/01/11 06:32:22;;;;;;;87.05;27.33;;;;;;;5.54;76.37;102886.75;5027684;28;20552;-66
2022/01/11 06:34:48;;;;;;;142.55;37.38;;;;;;;5.55;77.03;102893.66;5030440;28;20177;-66
2022/01/11 06:37:16;;;;;;;276.75;59.30;;;;;;;5.45;77.90;102898.84;5026518;28;20049;-66
2022/01/11 06:39:42;;;;;;;285.52;64.65;;;;;;;5.33;78.42;102902.25;5028352;28;20033;-66
2022/01/11 06:42:09;;;;;;;285.35;68.00;;;;;;;5.36;78.72;102912.66;5041300;28;20045;-66
2022/01/11 06:44:37;;;;;;;262.05;67.43;;;;;;;5.32;78.99;102905.75;5043491;28;20052;-66
2022/01/11 06:47:04;;;;;;;315.73;75.60;;;;;;;5.18;79.18;102904.78;5026803;28;20041;-66
2022/01/11 06:49:31;;;;;;;300.95;71.10;;;;;;;5.15;79.83;102908.25;5024091;28;20080;-66
2022/01/11 06:51:57;;;;;;;285.63;73.00;;;;;;;5.31;79.42;102911.81;5032706;28;20040;-66
2022/01/11 06:54:25;;;;;;;336.20;75.15;;;;;;;5.40;79.11;102917.91;5038523;28;20064;-66
2022/01/11 06:56:51;;;;;;;266.48;67.32;;;;;;;5.44;78.91;102915.31;5046842;28;20084;-66
2022/01/11 06:59:17;;;;;;;259.48;69.13;;;;;;;5.52;78.46;102922.28;5025441;28;20046;-66
2022/01/11 07:01:44;;;;;;;281.75;68.72;;;;;;;5.40;78.31;102917.03;5028384;28;20041;-66
2022/01/11 07:04:10;;;;;;;294.52;69.30;;;;;;;5.21;79.22;102936.88;5029573;28;20045;-66
2022/01/11 07:06:36;;;;;;;288.33;68.20;;;;;;;5.16;79.35;102933.41;5016506;28;20096;-66
2022/01/11 07:09:03;;;;;;;260.80;67.57;;;;;;;5.26;78.67;102936.91;5028645;28;20575;-66
2022/01/11 07:11:30;;;;;;;243.50;68.93;;;;;;;5.24;79.18;102941.25;5039275;28;20049;-66
2022/01/11 07:13:57;;;;;;;302.88;73.50;;;;;;;5.31;78.59;102954.28;5031239;28;20075;-66
2022/01/11 07:16:23;;;;;;;289.23;76.03;;;;;;;5.31;78.37;102953.41;5030447;28;20046;-66
2022/01/11 07:18:50;;;;;;;278.42;73.20;;;;;;;5.30;78.54;102952.56;5041528;28;20057;-66
2022/01/11 07:21:16;;;;;;;318.15;74.85;;;;;;;5.13;78.87;102966.31;5020386;28;20498;-66
2022/01/11 07:23:43;;;;;;;393.67;84.78;;;;;;;5.01;79.34;102979.25;5016851;28;20041;-66
2022/01/11 07:26:09;;;;;;;295.83;81.28;;;;;;;5.13;79.31;102977.59;5040429;28;20079;-66
2022/01/11 07:28:37;;;;;;;341.95;84.55;;;;;;;5.16;79.03;102975.00;5033869;28;20050;-66
2022/01/11 07:31:04;;;;;;;356.23;82.85;;;;;;;5.18;79.17;102980.22;5014889;28;20091;-66
2022/01/11 07:33:30;;;;;;;283.88;77.75;;;;;;;5.08;79.09;102981.88;5023851;28;20073;-66
2022/01/11 07:35:57;;;;;;;343.80;88.43;;;;;;;5.11;79.23;102983.63;5019406;28;20042;-66
2022/01/11 07:38:23;;;;;;;414.52;88.13;;;;;;;5.01;79.14;102987.03;5017101;28;20045;-66
2022/01/11 07:40:49;;;;;;;324.52;83.40;;;;;;;5.19;78.93;102985.44;5034237;28;20489;-66
2022/01/11 07:43:16;;;;;;;309.48;81.25;;;;;;;5.20;78.83;102986.31;5035637;28;20095;-66
2022/01/11 07:45:43;;;;;;;355.45;83.68;;;;;;;5.13;78.87;102994.94;5027045;28;20087;-66
2022/01/11 07:48:10;;;;;;;332.33;82.57;;;;;;;5.27;78.33;102991.56;5015481;28;20110;-65
2022/01/11 07:50:36;;;;;;;318.50;80.95;;;;;;;5.20;78.60;102986.31;5036409;28;20041;-65
2022/01/11 07:53:05;;;;;;;313.80;81.10;;;;;;;5.24;78.61;102988.06;5044177;28;20501;-66
2022/01/11 07:55:32;;;;;;;283.63;78.10;;;;;;;5.37;78.48;102993.34;5044643;28;20075;-65
2022/01/11 07:57:58;;;;;;;305.65;78.13;;;;;;;5.31;78.83;102988.13;5037610;28;20121;-65
2022/01/11 08:00:24;;;;;;;509.77;95.15;;;;;;;5.13;79.11;102994.94;5038158;28;20049;-66
2022/01/11 08:02:52;;;;;;;320.55;82.40;;;;;;;5.19;79.23;102992.34;5019752;28;20054;-65
2022/01/11 08:05:21;;;;;;;306.60;81.82;;;;;;;5.21;79.08;102996.69;5021147;28;20076;-66
2022/01/11 08:07:47;;;;;;;350.27;86.97;;;;;;;5.23;78.84;103004.53;5024217;28;20045;-65
2022/01/11 08:10:18;;;;;;;341.05;83.57;;;;;;;5.24;79.07;103001.06;5035118;28;20567;-65
2022/01/11 08:12:44;;;;;;;288.70;76.70;;;;;;;5.40;78.46;103010.69;5039741;28;20155;-65
2022/01/11 08:15:10;;;;;;;293.02;78.30;;;;;;;5.43;78.13;103008.13;5021224;28;20049;-65
2022/01/11 08:17:37;;;;;;;319.40;78.45;;;;;;;5.33;78.08;103014.13;5026345;28;20114;-65
2022/01/11 08:20:06;;;;;;;315.55;79.70;;;;;;;5.07;79.15;103007.88;5031915;28;20386;-66
2022/01/11 08:22:32;;;;;;;290.30;76.25;;;;;;;4.96;79.41;103001.72;5041329;28;20053;-65
2022/01/11 08:24:59;;;;;;;277.63;75.22;;;;;;;5.13;79.04;103005.34;5025433;28;20629;-66
2022/01/11 08:27:25;;;;;;;275.15;74.45;;;;;;;5.15;79.39;103009.69;5038440;28;20452;-66
2022/01/11 08:29:52;;;;;;;242.85;68.82;;;;;;;5.20;78.92;103007.97;5038172;28;20080;-65
2022/01/11 08:32:18;;;;;;;243.80;66.55;;;;;;;4.80;79.48;103005.97;5029373;28;20050;-65
2022/01/11 08:34:44;;;;;;;219.85;65.57;;;;;;;4.88;79.68;103010.34;5037532;28;20106;-65
2022/01/11 08:37:12;;;;;;;211.32;63.80;;;;;;;4.85;79.47;103007.72;5035827;28;20131;-65
2022/01/11 08:39:39;;;;;;;213.82;62.92;;;;;;;4.70;79.62;103009.31;5034889;28;20044;-65
2022/01/11 08:42:08;;;;;;;198.27;57.38;;;;;;;4.39;80.59;103005.59;5035706;28;20044;-65
2022/01/11 08:44:34;;;;;;;205.70;61.20;;;;;;;4.02;82.27;103006.06;5041870;28;20045;-65
2022/01/11 08:47:01;;;;;;;211.55;62.13;;;;;;;3.88;82.14;103019.72;5032588;28;20464;-65
2022/01/11 08:49:27;;;;;;;225.23;64.53;;;;;;;3.75;82.55;103033.41;5040069;28;20095;-65
2022/01/11 08:51:53;;;;;;;200.80;64.10;;;;;;;2.93;84.56;103032.22;5051211;28;20096;-65
2022/01/11 08:54:24;;;;;;;237.55;63.17;;;;;;;2.87;85.97;103033.84;5027778;28;20053;-65
2022/01/11 08:56:52;;;;;;;;;;;;;;;3.04;85.61;103031.50;5034171;28;20055;-65
2022/01/11 08:59:18;;;;;;;223.85;61.78;;;;;;;2.94;85.51;103028.78;5036156;28;19920;-65
2022/01/11 09:01:44;;;;;;;226.40;68.85;;;;;;;2.84;85.25;103036.38;5036015;28;20068;-65
2022/01/11 09:04:11;;;;;;;199.73;60.63;;;;;;;2.84;85.14;103036.38;5032254;28;20065;-66
2022/01/11 09:06:38;;;;;;;242.68;68.05;;;;;;;2.90;85.05;103037.34;5038330;28;20049;-66
2022/01/11 09:09:04;;;;;;;224.20;70.90;;;;;;;2.67;85.90;103038.66;5030836;28;20399;-66
2022/01/11 09:11:32;;;;;;;208.18;80.43;;;;;;;2.47;86.40;103034.88;5026290;28;20045;-67
2022/01/11 09:13:58;;;;;;;210.48;62.10;;;;;;;2.59;85.94;103044.59;5033744;28;20041;-66
2022/01/11 09:16:25;;;;;;;243.55;68.38;;;;;;;2.30;86.82;103036.25;5051380;28;20071;-66
2022/01/11 09:18:51;;;;;;;227.00;61.15;;;;;;;2.33;86.67;103046.66;5035454;28;20100;-66
2022/01/11 09:21:20;;;;;;;212.95;61.60;;;;;;;2.15;87.71;103044.59;5049185;28;20045;-66
2022/01/11 09:23:47;;;;;;;221.05;84.20;;;;;;;1.97;87.29;103041.66;5032237;28;20100;-66
2022/01/11 09:26:13;;;;;;;210.60;58.53;;;;;;;2.11;87.59;103039.34;5043213;28;20127;-66
2022/01/11 09:28:41;;;;;;;234.00;61.90;;;;;;;2.58;86.43;103042.84;5042316;28;20455;-66
2022/01/11 09:31:07;;;;;;;208.10;61.38;;;;;;;2.75;84.98;103052.63;5025189;28;20559;-66
2022/01/11 09:33:34;;;;;;;212.85;56.85;;;;;;;2.86;84.27;103053.69;5028951;28;20498;-66
2022/01/11 09:36:01;;;;;;;209.57;61.85;;;;;;;2.84;84.12;103051.94;5042065;28;20045;-66
2022/01/11 09:38:29;;;;;;;208.60;60.17;;;;;;;2.79;84.81;103056.16;5036996;28;20054;-66
2022/01/11 09:40:57;;;;;;;214.18;60.95;;;;;;;2.83;83.96;103060.53;5015835;28;20050;-66
2022/01/11 09:43:24;;;;;;;211.82;56.03;;;;;;;2.92;84.18;103053.78;5038938;28;20571;-66
2022/01/11 09:45:53;;;;;;;229.68;66.47;;;;;;;2.82;84.06;103058.78;5044680;28;20494;-66
2022/01/11 09:48:20;;;;;;;207.02;56.47;;;;;;;2.84;84.07;103059.69;5043562;28;20409;-65
2022/01/11 09:50:47;;;;;;;219.23;60.15;;;;;;;2.75;84.58;103056.94;5049410;28;20493;-65
2022/01/11 09:53:13;;;;;;;228.52;63.58;;;;;;;3.17;82.61;103062.84;5047895;28;20041;-65
2022/01/11 09:55:41;;;;;;;212.23;57.22;;;;;;;3.10;82.61;103066.19;5027235;28;20126;-66
2022/01/11 09:58:08;;;;;;;240.50;63.47;;;;;;;2.97;82.76;103066.81;5042458;28;20045;-66
2022/01/11 10:00:35;;;;;;;227.68;58.40;;;;;;;2.96;83.78;103064.22;5035714;28;20088;-66
2022/01/11 10:03:04;;;;;;;245.25;62.92;;;;;;;2.81;83.87;103063.09;5020284;28;20459;-66
2022/01/11 10:05:32;;;;;;;238.23;67.07;;;;;;;2.38;84.85;103061.47;5046703;28;20080;-66
2022/01/11 10:07:59;;;;;;;263.52;72.28;;;;;;;2.03;86.42;103074.56;5043031;28;20285;-66
2022/01/11 10:10:27;;;;;;;259.80;67.65;;;;;;;2.00;87.34;103070.19;5037182;28;20619;-66
2022/01/11 10:12:58;;;;;;;272.05;70.32;;;;;;;1.83;87.80;103072.44;5042625;28;20138;-68
2022/01/11 10:15:28;;;;;;;293.17;73.40;;;;;;;2.06;87.22;103072.91;5032910;28;20045;-67
2022/01/11 10:17:54;;;;;;;288.13;72.82;;;;;;;2.25;86.29;103069.84;5043844;28;20061;-67
2022/01/11 10:20:25;;;;;;;319.77;73.43;;;;;;;2.74;84.35;103066.44;5039339;28;20091;-67
2022/01/11 10:22:55;;;;;;;315.45;77.50;;;;;;;2.82;83.67;103066.56;5045322;28;20045;-67
2022/01/11 10:25:22;;;;;;;302.65;75.50;;;;;;;2.91;83.67;103062.44;5044522;28;20041;-67
2022/01/11 10:27:55;;;;;;;299.48;72.10;;;;;;;3.02;82.56;103061.72;5016146;28;20469;-67
2022/01/11 10:30:23;;;;;;;318.52;82.85;;;;;;;2.53;84.15;103070.34;5034429;28;20466;-67
2022/01/11 10:32:51;;;;;;;327.52;76.72;;;;;;;2.70;83.94;103072.41;5029401;28;20424;-67
2022/01/11 10:35:25;;;;;;;329.52;77.95;;;;;;;2.44;84.98;103074.50;5050748;28;20045;-67
2022/01/11 10:37:54;;;;;;;345.25;80.35;;;;;;;2.57;84.58;103083.41;5026164;28;20037;-67
2022/01/11 10:40:22;;;;;;;317.17;77.75;;;;;;;2.83;84.11;103069.19;5029814;28;20049;-67
2022/01/11 10:42:51;;;;;;;276.90;73.15;;;;;;;2.94;83.03;103070.25;5030085;28;20502;-67
2022/01/11 10:45:20;;;;;;;262.33;68.57;;;;;;;2.47;83.72;103072.84;5029904;28;20046;-67
2022/01/11 10:47:48;;;;;;;249.85;66.07;;;;;;;2.33;85.18;103075.16;5025510;28;20042;-66
2022/01/11 10:50:19;;;;;;;251.68;66.88;;;;;;;2.53;84.63;103075.53;5039529;28;20103;-66
2022/01/11 10:52:48;;;;;;;255.13;71.93;;;;;;;1.94;85.91;103083.88;5032644;28;20046;-67
2022/01/11 10:55:17;;;;;;;266.40;67.38;;;;;;;1.83;87.36;103075.00;5043025;28;22190;-67
2022/01/11 10:57:47;;;;;;;277.00;67.10;;;;;;;1.97;86.38;103080.47;5033595;28;20060;-67
2022/01/11 11:00:23;;;;;;;251.85;68.25;;;;;;;2.25;86.00;103079.34;5029035;28;20041;-67
2022/01/11 11:02:53;;;;;;;278.80;72.22;;;;;;;2.52;84.56;103090.19;5029600;28;20413;-67
2022/01/11 11:05:28;;;;;;;246.60;77.78;;;;;;;2.04;85.26;103086.63;5034413;28;20053;-67
2022/01/11 11:07:59;;;;;;;299.35;84.30;;;;;;;2.23;85.15;103087.06;5024961;28;20910;-67
2022/01/11 11:10:38;;;;;;;289.65;70.40;;;;;;;1.79;86.84;103083.53;5034228;28;20563;-67
2022/01/11 11:13:07;;;;;;;289.30;71.47;;;;;;;1.63;87.60;103085.75;5027404;28;20479;-67
2022/01/11 11:15:36;;;;;;;313.92;81.05;;;;;;;1.46;88.87;103083.69;5021145;28;20045;-67
2022/01/11 11:18:04;;;;;;;287.50;70.40;;;;;;;2.14;87.44;103101.53;5007766;28;20057;-67